createdAt,value
2023-02-26T00:00:58.182Z,1007.80
2023-02-26T00:01:58.234Z,1007.82
2023-02-26T00:02:58.197Z,1007.83
2023-02-26T00:03:58.190Z,1007.84
2023-02-26T00:04:58.188Z,1007.88
2023-02-26T00:05:58.194Z,1007.89
2023-02-26T00:06:59.796Z,1007.90
2023-02-26T00:07:58.189Z,1007.90
2023-02-26T00:08:58.184Z,1007.93
2023-02-26T00:09:58.185Z,1007.92
2023-02-26T00:10:58.190Z,1008.00
2023-02-26T00:11:58.192Z,1008.06
2023-02-26T00:12:58.190Z,1008.04
2023-02-26T00:13:58.214Z,1008.03
2023-02-26T00:14:58.188Z,1008.04
2023-02-26T00:15:58.185Z,1008.07
2023-02-26T00:16:58.389Z,1008.11
2023-02-26T00:17:58.197Z,1008.09
2023-02-26T00:18:58.200Z,1008.15
2023-02-26T00:19:58.194Z,1008.15
2023-02-26T00:20:58.189Z,1008.15
2023-02-26T00:21:58.197Z,1008.11
2023-02-26T00:22:58.400Z,1008.15
2023-02-26T00:23:58.194Z,1008.15
2023-02-26T00:24:58.199Z,1008.15
2023-02-26T00:25:58.200Z,1008.21
2023-02-26T00:26:58.196Z,1008.15
2023-02-26T00:28:58.194Z,1008.23
2023-02-26T00:29:58.227Z,1008.27
2023-02-26T00:30:58.219Z,1008.32
2023-02-26T00:31:58.383Z,1008.27
2023-02-26T00:32:58.206Z,1008.35
2023-02-26T00:33:58.215Z,1008.32
2023-02-26T00:34:58.202Z,1008.33
2023-02-26T00:35:58.200Z,1008.32
2023-02-26T00:36:58.208Z,1008.30
2023-02-26T00:37:58.203Z,1008.30
2023-02-26T00:38:58.210Z,1008.33
2023-02-26T00:39:58.208Z,1008.35
2023-02-26T00:40:58.211Z,1008.36
2023-02-26T00:41:58.211Z,1008.39
2023-02-26T00:42:58.213Z,1008.41
2023-02-26T00:43:58.207Z,1008.41
2023-02-26T00:44:58.205Z,1008.42
2023-02-26T00:45:58.274Z,1008.43
2023-02-26T00:46:58.228Z,1008.43
2023-02-26T00:47:58.221Z,1008.42
2023-02-26T00:48:58.210Z,1008.41
2023-02-26T00:49:58.218Z,1008.38
2023-02-26T00:50:58.209Z,1008.42
2023-02-26T00:51:58.228Z,1008.42
2023-02-26T00:52:58.213Z,1008.39
2023-02-26T00:53:58.213Z,1008.41
2023-02-26T00:54:59.232Z,1008.41
2023-02-26T00:55:58.212Z,1008.44
2023-02-26T00:56:58.216Z,1008.40
2023-02-26T00:57:58.218Z,1008.44
2023-02-26T00:58:58.221Z,1008.42
2023-02-26T00:59:58.215Z,1008.42
2023-02-26T01:00:58.224Z,1008.48
2023-02-26T01:01:58.243Z,1008.51
2023-02-26T01:02:58.225Z,1008.44
2023-02-26T01:03:58.264Z,1008.46
2023-02-26T01:04:58.216Z,1008.46
2023-02-26T01:05:58.220Z,1008.48
2023-02-26T01:06:58.231Z,1008.50
2023-02-26T01:07:58.227Z,1008.49
2023-02-26T01:08:58.225Z,1008.52
2023-02-26T01:09:58.226Z,1008.49
2023-02-26T01:10:58.218Z,1008.55
2023-02-26T01:11:58.221Z,1008.56
2023-02-26T01:12:58.227Z,1008.55
2023-02-26T01:13:58.230Z,1008.53
2023-02-26T01:14:58.221Z,1008.60
2023-02-26T01:15:58.312Z,1008.59
2023-02-26T01:16:58.222Z,1008.59
2023-02-26T01:17:58.243Z,1008.59
2023-02-26T01:18:58.230Z,1008.60
2023-02-26T01:19:58.228Z,1008.63
2023-02-26T01:20:58.426Z,1008.63
2023-02-26T01:21:58.227Z,1008.63
2023-02-26T01:23:58.233Z,1008.68
2023-02-26T01:24:58.236Z,1008.66
2023-02-26T01:25:58.229Z,1008.68
2023-02-26T01:26:58.234Z,1008.66
2023-02-26T01:27:58.229Z,1008.69
2023-02-26T01:28:58.238Z,1008.70
2023-02-26T01:29:58.232Z,1008.70
2023-02-26T01:30:58.337Z,1008.73
2023-02-26T01:31:58.489Z,1008.74
2023-02-26T01:32:58.234Z,1008.78
2023-02-26T01:33:58.256Z,1008.75
2023-02-26T01:34:58.236Z,1008.80
2023-02-26T01:35:58.241Z,1008.76
2023-02-26T01:36:58.235Z,1008.75
2023-02-26T01:37:58.247Z,1008.78
2023-02-26T01:38:58.232Z,1008.80
2023-02-26T01:39:58.229Z,1008.81
2023-02-26T01:40:58.247Z,1008.80
2023-02-26T01:41:58.239Z,1008.85
2023-02-26T01:42:58.240Z,1008.85
2023-02-26T01:43:58.240Z,1008.87
2023-02-26T01:44:58.236Z,1008.86
2023-02-26T01:45:58.242Z,1008.88
2023-02-26T01:46:58.263Z,1008.87
2023-02-26T01:47:58.237Z,1008.90
2023-02-26T01:48:58.246Z,1008.87
2023-02-26T01:49:58.268Z,1008.88
2023-02-26T01:50:58.239Z,1008.89
2023-02-26T01:51:58.258Z,1008.87
2023-02-26T01:52:58.246Z,1008.91
2023-02-26T01:53:58.244Z,1008.92
2023-02-26T01:55:58.249Z,1008.95
2023-02-26T01:56:58.243Z,1008.93
2023-02-26T01:57:58.244Z,1008.99
2023-02-26T01:58:58.253Z,1008.99
2023-02-26T01:59:58.241Z,1009.03
2023-02-26T02:00:58.250Z,1009.03
2023-02-26T02:01:58.252Z,1009.07
2023-02-26T02:03:01.008Z,1009.06
2023-02-26T02:03:58.247Z,1009.07
2023-02-26T02:04:58.246Z,1009.14
2023-02-26T02:05:58.268Z,1009.13
2023-02-26T02:06:58.276Z,1009.11
2023-02-26T02:07:58.247Z,1009.15
2023-02-26T02:08:58.258Z,1009.14
2023-02-26T02:09:58.254Z,1009.17
2023-02-26T02:10:58.256Z,1009.18
2023-02-26T02:11:58.853Z,1009.19
2023-02-26T02:12:58.246Z,1009.19
2023-02-26T02:13:58.245Z,1009.22
2023-02-26T02:15:45.794Z,1009.22
2023-02-26T02:16:45.924Z,1009.22
2023-02-26T02:19:13.415Z,1009.28
2023-02-26T02:20:13.413Z,1009.35
2023-02-26T02:21:13.435Z,1009.32
2023-02-26T02:22:13.421Z,1009.37
2023-02-26T02:23:13.412Z,1009.35
2023-02-26T02:24:13.421Z,1009.39
2023-02-26T02:25:13.420Z,1009.40
2023-02-26T02:26:13.428Z,1009.39
2023-02-26T02:27:13.412Z,1009.39
2023-02-26T02:28:13.431Z,1009.39
2023-02-26T02:29:13.413Z,1009.43
2023-02-26T02:30:13.417Z,1009.44
2023-02-26T02:31:13.478Z,1009.45
2023-02-26T02:32:13.613Z,1009.48
2023-02-26T02:33:13.422Z,1009.47
2023-02-26T02:34:13.442Z,1009.45
2023-02-26T02:35:13.423Z,1009.47
2023-02-26T02:36:13.415Z,1009.45
2023-02-26T02:37:13.448Z,1009.50
2023-02-26T02:38:13.420Z,1009.50
2023-02-26T02:39:13.423Z,1009.49
2023-02-26T02:40:13.424Z,1009.51
2023-02-26T02:41:13.422Z,1009.50
2023-02-26T02:42:13.425Z,1009.50
2023-02-26T02:43:13.425Z,1009.51
2023-02-26T02:44:13.425Z,1009.53
2023-02-26T02:45:13.424Z,1009.52
2023-02-26T02:46:13.502Z,1009.56
2023-02-26T02:47:13.418Z,1009.59
2023-02-26T02:48:13.432Z,1009.57
2023-02-26T02:49:13.421Z,1009.60
2023-02-26T02:50:13.425Z,1009.59
2023-02-26T02:51:13.420Z,1009.67
2023-02-26T02:52:13.422Z,1009.62
2023-02-26T02:53:13.452Z,1009.65
2023-02-26T02:54:13.427Z,1009.66
2023-02-26T02:55:13.429Z,1009.64
2023-02-26T02:56:13.424Z,1009.67
2023-02-26T02:57:13.437Z,1009.68
2023-02-26T02:58:13.444Z,1009.68
2023-02-26T02:59:13.427Z,1009.68
2023-02-26T03:00:13.448Z,1009.69
2023-02-26T03:01:13.467Z,1009.71
2023-02-26T03:02:13.427Z,1009.73
2023-02-26T03:03:13.426Z,1009.78
2023-02-26T03:04:13.437Z,1009.72
2023-02-26T03:05:13.429Z,1009.70
2023-02-26T03:06:13.435Z,1009.74
2023-02-26T03:07:13.433Z,1009.77
2023-02-26T03:08:13.437Z,1009.75
2023-02-26T03:09:13.456Z,1009.77
2023-02-26T03:10:13.440Z,1009.81
2023-02-26T03:11:13.426Z,1009.83
2023-02-26T03:12:13.436Z,1009.86
2023-02-26T03:13:13.428Z,1009.89
2023-02-26T03:14:13.448Z,1009.89
2023-02-26T03:15:13.437Z,1009.96
2023-02-26T03:16:13.465Z,1009.95
2023-02-26T03:17:13.435Z,1009.96
2023-02-26T03:18:13.443Z,1009.96
2023-02-26T03:19:13.437Z,1010.01
2023-02-26T03:20:13.436Z,1010.05
2023-02-26T03:21:13.430Z,1010.03
2023-02-26T03:22:13.443Z,1010.04
2023-02-26T03:23:13.442Z,1010.05
2023-02-26T03:24:13.442Z,1010.05
2023-02-26T03:25:13.456Z,1010.07
2023-02-26T03:26:13.441Z,1010.04
2023-02-26T03:27:13.444Z,1010.08
2023-02-26T03:28:13.438Z,1010.09
2023-02-26T03:29:13.444Z,1010.11
2023-02-26T03:30:13.444Z,1010.15
2023-02-26T03:31:13.536Z,1010.14
2023-02-26T03:32:13.560Z,1010.12
2023-02-26T03:33:13.445Z,1010.13
2023-02-26T03:34:13.452Z,1010.14
2023-02-26T03:35:13.453Z,1010.19
2023-02-26T03:36:13.447Z,1010.20
2023-02-26T03:37:13.440Z,1010.24
2023-02-26T03:38:13.454Z,1010.22
2023-02-26T03:39:13.448Z,1010.28
2023-02-26T03:40:13.443Z,1010.27
2023-02-26T03:41:13.462Z,1010.26
2023-02-26T03:42:13.456Z,1010.30
2023-02-26T03:43:13.442Z,1010.29
2023-02-26T03:44:13.452Z,1010.31
2023-02-26T03:45:13.446Z,1010.37
2023-02-26T03:46:13.518Z,1010.35
2023-02-26T03:47:13.452Z,1010.35
2023-02-26T03:48:13.447Z,1010.34
2023-02-26T03:49:13.510Z,1010.40
2023-02-26T03:50:13.453Z,1010.44
2023-02-26T03:51:13.456Z,1010.43
2023-02-26T03:52:13.462Z,1010.46
2023-02-26T03:53:13.458Z,1010.45
2023-02-26T03:54:13.447Z,1010.51
2023-02-26T03:55:13.453Z,1010.57
2023-02-26T03:56:13.456Z,1010.58
2023-02-26T03:57:13.486Z,1010.59
2023-02-26T03:58:13.457Z,1010.59
2023-02-26T03:59:13.451Z,1010.58
2023-02-26T04:00:13.452Z,1010.57
2023-02-26T04:01:13.460Z,1010.64
2023-02-26T04:02:13.487Z,1010.62
2023-02-26T04:03:13.458Z,1010.66
2023-02-26T04:04:13.521Z,1010.70
2023-02-26T04:05:13.471Z,1010.72
2023-02-26T04:06:13.460Z,1010.75
2023-02-26T04:07:13.465Z,1010.77
2023-02-26T04:08:13.452Z,1010.75
2023-02-26T04:09:15.849Z,1010.78
2023-02-26T04:10:13.454Z,1010.80
2023-02-26T04:11:13.456Z,1010.81
2023-02-26T04:12:13.477Z,1010.84
2023-02-26T04:13:13.486Z,1010.79
2023-02-26T04:14:13.456Z,1010.78
2023-02-26T04:15:13.461Z,1010.75
2023-02-26T04:16:13.526Z,1010.80
2023-02-26T04:17:13.459Z,1010.82
2023-02-26T04:18:13.464Z,1010.81
2023-02-26T04:19:13.472Z,1010.85
2023-02-26T04:20:13.489Z,1010.85
2023-02-26T04:21:13.472Z,1010.88
2023-02-26T04:22:13.469Z,1010.86
2023-02-26T04:23:13.460Z,1010.89
2023-02-26T04:24:13.471Z,1010.94
2023-02-26T04:25:13.463Z,1010.87
2023-02-26T04:26:13.472Z,1010.87
2023-02-26T04:27:13.468Z,1010.89
2023-02-26T04:28:13.471Z,1010.94
2023-02-26T04:29:13.504Z,1010.94
2023-02-26T04:30:13.464Z,1010.93
2023-02-26T04:31:13.639Z,1010.99
2023-02-26T04:32:13.527Z,1011.02
2023-02-26T04:33:13.470Z,1010.98
2023-02-26T04:35:13.465Z,1011.02
2023-02-26T04:36:13.468Z,1011.00
2023-02-26T04:37:13.470Z,1011.07
2023-02-26T04:38:13.466Z,1011.08
2023-02-26T04:39:56.011Z,1011.11
2023-02-26T04:40:56.007Z,1011.11
2023-02-26T04:41:56.007Z,1011.13
2023-02-26T04:42:56.009Z,1011.14
2023-02-26T04:43:56.025Z,1011.14
2023-02-26T04:44:56.039Z,1011.14
2023-02-26T04:45:56.119Z,1011.12
2023-02-26T04:46:56.027Z,1011.18
2023-02-26T04:47:56.012Z,1011.20
2023-02-26T04:48:56.010Z,1011.24
2023-02-26T04:49:56.003Z,1011.23
2023-02-26T04:50:56.011Z,1011.22
2023-02-26T04:51:56.041Z,1011.29
2023-02-26T04:53:38.551Z,1011.27
2023-02-26T04:54:38.544Z,1011.31
2023-02-26T04:55:38.564Z,1011.31
2023-02-26T04:56:42.385Z,1011.33
2023-02-26T04:57:38.550Z,1011.33
2023-02-26T04:58:38.552Z,1011.40
2023-02-26T04:59:38.551Z,1011.38
2023-02-26T05:00:38.579Z,1011.42
2023-02-26T05:01:38.589Z,1011.40
2023-02-26T05:02:38.554Z,1011.42
2023-02-26T05:03:38.554Z,1011.42
2023-02-26T05:04:38.583Z,1011.42
2023-02-26T05:05:38.556Z,1011.46
2023-02-26T05:06:38.559Z,1011.47
2023-02-26T05:07:38.566Z,1011.52
2023-02-26T05:08:38.562Z,1011.51
2023-02-26T05:09:38.557Z,1011.51
2023-02-26T05:11:38.554Z,1011.51
2023-02-26T05:12:38.764Z,1011.50
2023-02-26T05:13:38.569Z,1011.54
2023-02-26T05:14:38.558Z,1011.55
2023-02-26T05:15:38.559Z,1011.58
2023-02-26T05:16:38.601Z,1011.57
2023-02-26T05:17:38.565Z,1011.56
2023-02-26T05:18:38.559Z,1011.62
2023-02-26T05:19:38.559Z,1011.63
2023-02-26T05:20:41.191Z,1011.66
2023-02-26T05:21:38.560Z,1011.65
2023-02-26T05:22:38.571Z,1011.66
2023-02-26T05:23:38.571Z,1011.65
2023-02-26T05:24:39.171Z,1011.67
2023-02-26T05:25:38.572Z,1011.70
2023-02-26T05:26:38.565Z,1011.72
2023-02-26T05:27:38.572Z,1011.73
2023-02-26T05:28:38.572Z,1011.75
2023-02-26T05:29:38.575Z,1011.79
2023-02-26T05:30:38.603Z,1011.80
2023-02-26T05:31:38.690Z,1011.80
2023-02-26T05:32:38.599Z,1011.84
2023-02-26T05:33:38.625Z,1011.86
2023-02-26T05:34:38.568Z,1011.83
2023-02-26T05:35:38.584Z,1011.87
2023-02-26T05:36:38.577Z,1011.89
2023-02-26T05:37:38.599Z,1011.90
2023-02-26T05:38:38.575Z,1011.93
2023-02-26T05:39:38.634Z,1011.91
2023-02-26T05:40:38.575Z,1011.95
2023-02-26T05:41:38.587Z,1011.93
2023-02-26T05:42:38.578Z,1011.92
2023-02-26T05:43:38.575Z,1011.91
2023-02-26T05:44:38.575Z,1011.92
2023-02-26T05:45:38.583Z,1011.96
2023-02-26T05:46:38.731Z,1011.92
2023-02-26T05:47:38.583Z,1011.96
2023-02-26T05:48:38.594Z,1011.91
2023-02-26T05:49:38.586Z,1011.95
2023-02-26T05:50:38.577Z,1012.03
2023-02-26T05:51:38.588Z,1012.05
2023-02-26T05:52:38.577Z,1012.09
2023-02-26T05:53:38.584Z,1012.12
2023-02-26T05:54:38.578Z,1012.13
2023-02-26T05:55:38.582Z,1012.18
2023-02-26T05:56:38.594Z,1012.17
2023-02-26T05:57:38.586Z,1012.14
2023-02-26T05:58:38.594Z,1012.22
2023-02-26T05:59:38.584Z,1012.23
2023-02-26T06:00:38.582Z,1012.21
2023-02-26T06:01:38.700Z,1012.26
2023-02-26T06:02:38.645Z,1012.22
2023-02-26T06:03:38.587Z,1012.26
2023-02-26T06:04:38.610Z,1012.25
2023-02-26T06:05:38.620Z,1012.28
2023-02-26T06:06:38.585Z,1012.34
2023-02-26T06:07:38.602Z,1012.34
2023-02-26T06:08:38.586Z,1012.35
2023-02-26T06:09:38.590Z,1012.38
2023-02-26T06:10:38.594Z,1012.38
2023-02-26T06:11:38.591Z,1012.40
2023-02-26T06:12:38.592Z,1012.38
2023-02-26T06:13:38.593Z,1012.37
2023-02-26T06:14:38.624Z,1012.40
2023-02-26T06:15:38.588Z,1012.39
2023-02-26T06:16:38.665Z,1012.42
2023-02-26T06:17:41.247Z,1012.39
2023-02-26T06:18:38.592Z,1012.46
2023-02-26T06:19:38.596Z,1012.50
2023-02-26T06:20:38.620Z,1012.49
2023-02-26T06:21:38.591Z,1012.55
2023-02-26T06:22:38.599Z,1012.57
2023-02-26T06:23:38.617Z,1012.53
2023-02-26T06:24:38.606Z,1012.55
2023-02-26T06:25:38.600Z,1012.59
2023-02-26T06:26:38.603Z,1012.58
2023-02-26T06:27:38.646Z,1012.65
2023-02-26T06:28:38.602Z,1012.64
2023-02-26T06:29:38.606Z,1012.65
2023-02-26T06:30:38.645Z,1012.71
2023-02-26T06:31:38.732Z,1012.67
2023-02-26T06:32:38.665Z,1012.69
2023-02-26T06:33:38.607Z,1012.73
2023-02-26T06:34:38.610Z,1012.76
2023-02-26T06:35:38.617Z,1012.74
2023-02-26T06:36:38.632Z,1012.75
2023-02-26T06:37:38.623Z,1012.80
2023-02-26T06:38:38.605Z,1012.82
2023-02-26T06:39:38.605Z,1012.84
2023-02-26T06:40:38.618Z,1012.86
2023-02-26T06:41:38.615Z,1012.86
2023-02-26T06:42:38.615Z,1012.85
2023-02-26T06:43:38.609Z,1012.90
2023-02-26T06:44:38.617Z,1012.87
2023-02-26T06:45:38.650Z,1012.96
2023-02-26T06:46:38.618Z,1013.01
2023-02-26T06:47:38.613Z,1013.01
2023-02-26T06:48:38.618Z,1013.07
2023-02-26T06:49:38.615Z,1013.08
2023-02-26T06:50:38.614Z,1013.13
2023-02-26T06:51:38.622Z,1013.09
2023-02-26T06:52:38.635Z,1013.12
2023-02-26T06:53:38.614Z,1013.15
2023-02-26T06:54:38.616Z,1013.12
2023-02-26T06:55:38.622Z,1013.16
2023-02-26T06:56:38.625Z,1013.15
2023-02-26T06:57:38.624Z,1013.21
2023-02-26T06:58:38.628Z,1013.22
2023-02-26T06:59:38.626Z,1013.26
2023-02-26T07:00:38.620Z,1013.29
2023-02-26T07:01:38.625Z,1013.32
2023-02-26T07:02:38.738Z,1013.34
2023-02-26T07:03:38.628Z,1013.34
2023-02-26T07:04:38.619Z,1013.34
2023-02-26T07:05:38.640Z,1013.38
2023-02-26T07:06:38.844Z,1013.39
2023-02-26T07:07:38.632Z,1013.44
2023-02-26T07:08:38.650Z,1013.47
2023-02-26T07:09:41.259Z,1013.49
2023-02-26T07:10:38.622Z,1013.51
2023-02-26T07:11:38.631Z,1013.53
2023-02-26T07:12:38.630Z,1013.50
2023-02-26T07:13:38.624Z,1013.53
2023-02-26T07:14:38.630Z,1013.58
2023-02-26T07:15:38.621Z,1013.61
2023-02-26T07:16:38.663Z,1013.61
2023-02-26T07:17:38.629Z,1013.66
2023-02-26T07:18:38.633Z,1013.68
2023-02-26T07:19:38.631Z,1013.68
2023-02-26T07:20:38.629Z,1013.69
2023-02-26T07:21:38.624Z,1013.71
2023-02-26T07:22:38.629Z,1013.79
2023-02-26T07:23:38.632Z,1013.80
2023-02-26T07:24:38.647Z,1013.81
2023-02-26T07:25:38.626Z,1013.90
2023-02-26T07:26:38.632Z,1013.92
2023-02-26T07:27:38.634Z,1013.94
2023-02-26T07:28:38.625Z,1014.02
2023-02-26T07:29:38.640Z,1013.99
2023-02-26T07:30:38.707Z,1014.02
2023-02-26T07:31:38.769Z,1014.10
2023-02-26T07:32:38.629Z,1014.18
2023-02-26T07:33:38.628Z,1014.18
2023-02-26T07:34:41.250Z,1014.23
2023-02-26T07:35:38.633Z,1014.20
2023-02-26T07:36:38.635Z,1014.22
2023-02-26T07:37:38.636Z,1014.21
2023-02-26T07:38:38.639Z,1014.26
2023-02-26T07:39:38.639Z,1014.19
2023-02-26T07:40:38.706Z,1014.23
2023-02-26T07:41:38.642Z,1014.22
2023-02-26T07:42:38.636Z,1014.22
2023-02-26T07:43:38.647Z,1014.26
2023-02-26T07:44:38.645Z,1014.28
2023-02-26T07:45:38.642Z,1014.26
2023-02-26T07:46:38.775Z,1014.29
2023-02-26T07:47:38.647Z,1014.30
2023-02-26T07:48:38.650Z,1014.30
2023-02-26T07:49:38.652Z,1014.29
2023-02-26T07:50:38.668Z,1014.30
2023-02-26T07:51:38.664Z,1014.30
2023-02-26T07:52:38.669Z,1014.29
2023-02-26T07:53:38.670Z,1014.28
2023-02-26T07:54:38.676Z,1014.25
2023-02-26T07:55:38.680Z,1014.30
2023-02-26T07:56:38.713Z,1014.30
2023-02-26T07:57:38.687Z,1014.31
2023-02-26T07:58:38.694Z,1014.24
2023-02-26T07:59:38.691Z,1014.29
2023-02-26T08:00:38.703Z,1014.24
2023-02-26T08:01:38.763Z,1014.26
2023-02-26T08:02:38.724Z,1014.26
2023-02-26T08:03:38.724Z,1014.23
2023-02-26T08:04:38.722Z,1014.21
2023-02-26T08:05:38.729Z,1014.21
2023-02-26T08:06:38.738Z,1014.18
2023-02-26T08:07:38.742Z,1014.17
2023-02-26T08:08:38.746Z,1014.15
2023-02-26T08:09:38.756Z,1014.16
2023-02-26T08:10:41.061Z,1014.08
2023-02-26T08:11:38.766Z,1014.10
2023-02-26T08:12:38.800Z,1014.20
2023-02-26T08:13:38.781Z,1014.20
2023-02-26T08:14:38.781Z,1014.17
2023-02-26T08:15:38.809Z,1014.20
2023-02-26T08:16:38.799Z,1014.24
2023-02-26T08:17:38.804Z,1014.38
2023-02-26T08:18:38.807Z,1014.40
2023-02-26T08:19:38.818Z,1014.42
2023-02-26T08:20:38.823Z,1014.37
2023-02-26T08:21:38.829Z,1014.33
2023-02-26T08:22:38.830Z,1014.35
2023-02-26T08:23:38.832Z,1014.38
2023-02-26T08:24:38.844Z,1014.39
2023-02-26T08:25:38.844Z,1014.37
2023-02-26T08:26:38.853Z,1014.41
2023-02-26T08:27:38.894Z,1014.37
2023-02-26T08:28:38.883Z,1014.49
2023-02-26T08:29:38.863Z,1014.50
2023-02-26T08:30:38.879Z,1014.55
2023-02-26T08:31:39.004Z,1014.58
2023-02-26T08:32:38.925Z,1014.55
2023-02-26T08:33:38.887Z,1014.53
2023-02-26T08:34:38.909Z,1014.54
2023-02-26T08:35:38.903Z,1014.57
2023-02-26T08:36:38.906Z,1014.58
2023-02-26T08:37:38.921Z,1014.57
2023-02-26T08:38:38.917Z,1014.55
2023-02-26T08:39:38.967Z,1014.51
2023-02-26T08:40:38.933Z,1014.50
2023-02-26T08:41:38.939Z,1014.54
2023-02-26T08:42:38.949Z,1014.55
2023-02-26T08:43:38.953Z,1014.51
2023-02-26T08:44:39.003Z,1014.53
2023-02-26T08:45:38.974Z,1014.57
2023-02-26T08:46:39.018Z,1014.56
2023-02-26T08:47:42.348Z,1014.54
2023-02-26T08:48:38.988Z,1014.56
2023-02-26T08:49:38.995Z,1014.61
2023-02-26T08:50:39.006Z,1014.59
2023-02-26T08:51:39.021Z,1014.63
2023-02-26T08:52:39.029Z,1014.64
2023-02-26T08:53:39.043Z,1014.66
2023-02-26T08:54:39.050Z,1014.70
2023-02-26T08:55:39.058Z,1014.71
2023-02-26T08:56:39.069Z,1014.72
2023-02-26T08:57:39.075Z,1014.71
2023-02-26T08:58:39.082Z,1014.65
2023-02-26T08:59:39.096Z,1014.72
2023-02-26T09:00:39.126Z,1014.73
2023-02-26T09:01:39.171Z,1014.69
2023-02-26T09:03:21.672Z,1014.69
2023-02-26T09:04:21.688Z,1014.70
2023-02-26T09:05:21.694Z,1014.69
2023-02-26T09:06:21.702Z,1014.72
2023-02-26T09:07:21.721Z,1014.70
2023-02-26T09:08:21.728Z,1014.67
2023-02-26T09:09:21.736Z,1014.73
2023-02-26T09:10:21.751Z,1014.73
2023-02-26T09:11:21.766Z,1014.74
2023-02-26T09:12:21.774Z,1014.76
2023-02-26T09:13:21.788Z,1014.74
2023-02-26T09:14:21.792Z,1014.72
2023-02-26T09:15:21.809Z,1014.71
2023-02-26T09:16:21.890Z,1014.73
2023-02-26T09:17:21.827Z,1014.71
2023-02-26T09:18:21.844Z,1014.72
2023-02-26T09:19:21.854Z,1014.73
2023-02-26T09:20:21.864Z,1014.73
2023-02-26T09:21:21.882Z,1014.72
2023-02-26T09:22:21.895Z,1014.76
2023-02-26T09:23:21.905Z,1014.76
2023-02-26T09:24:21.918Z,1014.74
2023-02-26T09:25:21.931Z,1014.75
2023-02-26T09:26:21.944Z,1014.77
2023-02-26T09:27:21.956Z,1014.74
2023-02-26T09:28:21.989Z,1014.82
2023-02-26T09:29:21.981Z,1014.81
2023-02-26T09:30:21.994Z,1014.82
2023-02-26T09:31:22.184Z,1014.83
2023-02-26T09:32:22.178Z,1014.93
2023-02-26T09:33:22.033Z,1014.80
2023-02-26T09:34:22.039Z,1014.80
2023-02-26T09:35:22.052Z,1014.83
2023-02-26T09:36:22.073Z,1014.74
2023-02-26T09:37:22.086Z,1014.79
2023-02-26T09:38:22.090Z,1014.87
2023-02-26T09:39:22.112Z,1014.91
2023-02-26T09:40:22.190Z,1014.86
2023-02-26T09:41:22.143Z,1014.86
2023-02-26T09:42:22.147Z,1014.87
2023-02-26T09:43:22.164Z,1014.91
2023-02-26T09:44:22.173Z,1014.97
2023-02-26T09:45:22.182Z,1015.00
2023-02-26T09:46:22.201Z,1014.91
2023-02-26T09:47:22.213Z,1015.00
2023-02-26T09:48:22.247Z,1015.05
2023-02-26T09:49:22.228Z,1015.10
2023-02-26T09:50:22.267Z,1015.07
2023-02-26T09:51:22.252Z,1015.14
2023-02-26T09:52:22.264Z,1015.13
2023-02-26T09:53:22.299Z,1015.15
2023-02-26T09:54:22.292Z,1015.16
2023-02-26T09:55:22.292Z,1015.27
2023-02-26T09:56:22.309Z,1015.28
2023-02-26T09:57:22.325Z,1015.22
2023-02-26T09:58:22.331Z,1015.29
2023-02-26T09:59:22.332Z,1015.20
2023-02-26T10:00:22.345Z,1015.21
2023-02-26T10:01:22.360Z,1015.27
2023-02-26T10:02:22.364Z,1015.26
2023-02-26T10:03:22.384Z,1015.24
2023-02-26T10:04:22.498Z,1015.26
2023-02-26T10:05:22.404Z,1015.25
2023-02-26T10:06:22.413Z,1015.26
2023-02-26T10:07:22.431Z,1015.25
2023-02-26T10:08:22.424Z,1015.30
2023-02-26T10:09:22.444Z,1015.32
2023-02-26T10:10:22.445Z,1015.26
2023-02-26T10:11:22.457Z,1015.26
2023-02-26T10:12:22.466Z,1015.30
2023-02-26T10:13:22.480Z,1015.34
2023-02-26T10:14:22.486Z,1015.36
2023-02-26T10:15:22.504Z,1015.38
2023-02-26T10:16:22.560Z,1015.38
2023-02-26T10:17:22.528Z,1015.39
2023-02-26T10:18:22.539Z,1015.34
2023-02-26T10:19:22.545Z,1015.40
2023-02-26T10:20:22.598Z,1015.34
2023-02-26T10:21:22.578Z,1015.35
2023-02-26T10:22:22.579Z,1015.40
2023-02-26T10:23:22.597Z,1015.34
2023-02-26T10:24:22.609Z,1015.38
2023-02-26T10:25:22.634Z,1015.39
2023-02-26T10:26:22.634Z,1015.34
2023-02-26T10:27:22.644Z,1015.34
2023-02-26T11:46:34.758Z,1015.67
2023-02-26T11:47:34.715Z,1015.65
2023-02-26T11:48:34.730Z,1015.66
2023-02-26T11:49:34.735Z,1015.68
2023-02-26T11:50:34.755Z,1015.72
2023-02-26T11:51:34.766Z,1015.71
2023-02-26T11:52:34.790Z,1015.65
2023-02-26T11:53:34.796Z,1015.76
2023-02-26T12:52:47.221Z,1015.80
2023-02-26T12:53:47.208Z,1015.77
2023-02-26T12:54:47.244Z,1015.80
2023-02-26T12:55:47.244Z,1015.82
2023-02-26T12:56:47.262Z,1015.80
2023-02-26T12:57:47.274Z,1015.83
2023-02-26T12:58:47.281Z,1015.77
2023-02-26T12:59:47.305Z,1015.86
2023-02-26T13:00:47.378Z,1015.91
2023-02-26T13:02:00.580Z,1015.90
2023-02-26T13:02:47.344Z,1015.90
2023-02-26T13:03:47.442Z,1015.81
2023-02-26T13:04:47.367Z,1015.86
2023-02-26T13:05:47.397Z,1015.91
2023-02-26T13:06:47.407Z,1015.86
2023-02-26T13:07:47.416Z,1015.85
2023-02-26T13:08:47.456Z,1015.89
2023-02-26T13:09:47.462Z,1015.92
2023-02-26T13:10:47.469Z,1015.91
2023-02-26T13:11:47.491Z,1015.91
2023-02-26T13:12:47.497Z,1015.88
2023-02-26T13:13:47.517Z,1015.92
2023-02-26T13:14:47.523Z,1015.98
2023-02-26T13:15:47.548Z,1015.94
2023-02-26T13:29:33.412Z,1016.07
2023-02-26T13:30:33.496Z,1016.14
2023-02-26T13:31:33.963Z,1016.09
2023-02-26T13:32:33.545Z,1016.07
2023-02-26T13:33:33.457Z,1016.06
2023-02-26T13:34:33.466Z,1016.04
2023-02-26T13:35:33.481Z,1016.02
2023-02-26T13:36:35.283Z,1016.06
2023-02-26T13:47:02.728Z,1016.08
2023-02-26T13:48:02.767Z,1016.04
2023-02-26T13:49:02.735Z,1016.06
2023-02-26T13:50:02.756Z,1016.04
2023-02-26T13:51:02.763Z,1016.06
2023-02-26T13:52:02.785Z,1016.05
2023-02-26T13:53:02.795Z,1016.02
2023-02-26T13:54:02.807Z,1016.07
2023-02-26T13:55:02.825Z,1016.13
2023-02-26T13:56:02.847Z,1016.10
2023-02-26T14:05:18.829Z,1016.10
2023-02-26T14:06:18.808Z,1016.08
2023-02-26T14:07:18.822Z,1016.16
2023-02-26T14:08:18.842Z,1016.16
2023-02-26T14:09:18.856Z,1016.14
2023-02-26T14:10:18.869Z,1016.14
2023-02-26T14:11:18.900Z,1016.14
2023-02-26T14:12:18.900Z,1016.16
2023-02-26T14:13:18.942Z,1016.16
2023-02-26T14:14:18.930Z,1016.16
2023-02-26T14:15:18.942Z,1016.14
2023-02-26T14:16:18.980Z,1016.15
2023-02-26T14:17:18.977Z,1016.15
2023-02-26T14:18:18.999Z,1016.13
2023-02-26T14:19:19.018Z,1016.11
2023-02-26T14:20:19.029Z,1016.13
2023-02-26T14:21:19.067Z,1016.12
2023-02-26T14:22:19.065Z,1016.15
2023-02-26T14:23:19.074Z,1016.15
2023-02-26T14:24:19.131Z,1016.17
2023-02-26T14:25:19.107Z,1016.21
2023-02-26T14:26:19.116Z,1016.21
2023-02-26T14:27:19.138Z,1016.22
2023-02-26T14:28:19.147Z,1016.20
2023-02-26T14:29:19.173Z,1016.20
2023-02-26T14:30:19.184Z,1016.24
2023-02-26T14:31:19.294Z,1016.26
2023-02-26T14:32:19.371Z,1016.25
2023-02-26T14:33:19.226Z,1016.24
2023-02-26T14:34:19.248Z,1016.22
2023-02-26T14:35:19.254Z,1016.29
2023-02-26T14:36:19.276Z,1016.34
2023-02-26T14:37:19.309Z,1016.29
2023-02-26T14:38:19.300Z,1016.33
2023-02-26T14:39:19.317Z,1016.32
2023-02-26T14:40:19.327Z,1016.28
2023-02-26T14:41:19.354Z,1016.35
2023-02-26T14:42:19.371Z,1016.33
2023-02-26T14:43:19.387Z,1016.40
2023-02-26T14:44:19.393Z,1016.38
2023-02-26T14:45:19.415Z,1016.36
2023-02-26T14:46:19.432Z,1016.38
2023-02-26T14:47:19.446Z,1016.39
2023-02-26T14:48:19.471Z,1016.40
2023-02-26T14:49:19.470Z,1016.33
2023-02-26T14:50:19.495Z,1016.37
2023-02-26T14:51:19.512Z,1016.40
2023-02-26T14:52:19.518Z,1016.42
2023-02-26T14:53:19.562Z,1016.42
2023-02-26T14:54:19.546Z,1016.48
2023-02-26T14:55:19.559Z,1016.46
2023-02-26T14:56:19.584Z,1016.44
2023-02-26T14:57:19.597Z,1016.50
2023-02-26T14:58:19.613Z,1016.50
2023-02-26T14:59:19.626Z,1016.49
2023-02-26T15:00:19.636Z,1016.51
2023-02-26T15:01:24.315Z,1016.52
2023-02-26T15:02:19.815Z,1016.49